createdAt,value
2022-12-24T00:00:57.888Z,66.95
2022-12-24T00:05:14.129Z,66.98
2022-12-24T00:09:30.273Z,66.60
2022-12-24T00:13:46.904Z,66.20
2022-12-24T00:18:03.189Z,67.78
2022-12-24T00:22:19.484Z,67.35
2022-12-24T00:26:35.782Z,67.25
2022-12-24T00:30:51.980Z,68.23
2022-12-24T00:35:08.664Z,69.30
2022-12-24T00:39:25.007Z,68.71
2022-12-24T00:43:41.116Z,67.60
2022-12-24T00:47:57.314Z,67.26
2022-12-24T00:52:13.469Z,68.28
2022-12-24T00:56:29.755Z,67.91
2022-12-24T01:00:45.949Z,67.22
2022-12-24T01:05:11.170Z,67.43
2022-12-24T01:09:27.423Z,68.31
2022-12-24T01:13:43.659Z,68.47
2022-12-24T01:17:59.845Z,68.04
2022-12-24T01:22:16.194Z,67.19
2022-12-24T01:26:32.326Z,67.78
2022-12-24T01:30:49.476Z,68.23
2022-12-24T01:35:06.050Z,68.04
2022-12-24T01:39:22.212Z,67.65
2022-12-24T01:43:38.462Z,67.68
2022-12-24T01:47:54.729Z,67.17
2022-12-24T01:52:23.396Z,67.94
2022-12-24T01:56:47.493Z,68.44
2022-12-24T02:01:05.346Z,68.66
2022-12-24T02:05:40.952Z,69.52
2022-12-24T02:10:01.811Z,68.16
2022-12-24T02:14:19.108Z,68.50
2022-12-24T02:18:38.712Z,68.46
2022-12-24T02:23:53.077Z,68.98
2022-12-24T02:28:14.164Z,68.53
2022-12-24T02:32:33.140Z,67.36
2022-12-24T02:37:16.330Z,67.78
2022-12-24T02:42:03.992Z,67.03
2022-12-24T02:46:28.263Z,67.51
2022-12-24T02:51:03.523Z,68.01
2022-12-24T02:55:28.313Z,68.24
2022-12-24T03:00:07.960Z,67.74
2022-12-24T03:04:46.828Z,67.52
2022-12-24T03:09:14.228Z,68.18
2022-12-24T03:13:30.783Z,67.75
2022-12-24T03:17:49.652Z,67.93
2022-12-24T03:22:09.441Z,67.56
2022-12-24T03:26:27.005Z,67.80
2022-12-24T03:30:44.391Z,68.55
2022-12-24T03:35:00.879Z,68.14
2022-12-24T03:39:17.202Z,67.50
2022-12-24T03:43:34.037Z,68.49
2022-12-24T03:47:50.224Z,68.45
2022-12-24T03:52:06.369Z,68.33
2022-12-24T03:56:23.015Z,67.92
2022-12-24T04:00:39.308Z,67.95
2022-12-24T04:04:55.667Z,67.19
2022-12-24T04:09:11.994Z,67.51
2022-12-24T04:13:28.107Z,67.57
2022-12-24T04:17:44.354Z,67.16
2022-12-24T04:22:00.582Z,67.20
2022-12-24T04:26:16.825Z,66.68
2022-12-24T04:30:33.055Z,66.93
2022-12-24T04:34:49.312Z,66.63
2022-12-24T04:39:05.553Z,66.62
2022-12-24T04:43:21.689Z,66.21
2022-12-24T04:47:37.932Z,67.14
2022-12-24T04:51:54.115Z,66.72
2022-12-24T04:56:18.182Z,67.00
2022-12-24T05:00:34.457Z,68.26
2022-12-24T05:04:50.768Z,68.55
2022-12-24T05:09:06.979Z,67.16
2022-12-24T05:13:23.230Z,66.89
2022-12-24T05:17:39.373Z,68.13
2022-12-24T05:22:27.851Z,68.27
2022-12-24T05:26:56.109Z,68.19
2022-12-24T05:31:12.475Z,68.62
2022-12-24T05:35:28.719Z,68.39
2022-12-24T05:39:44.919Z,68.86
2022-12-24T05:44:01.250Z,69.14
2022-12-24T05:48:17.465Z,68.74
2022-12-24T05:52:33.791Z,69.41
2022-12-24T05:56:49.971Z,71.87
2022-12-24T06:01:07.102Z,71.27
2022-12-24T06:05:23.319Z,69.89
2022-12-24T06:09:39.590Z,69.77
2022-12-24T06:13:56.116Z,69.61
2022-12-24T06:18:12.302Z,69.34
2022-12-24T06:22:28.545Z,70.80
2022-12-24T06:26:44.693Z,72.81
2022-12-24T06:31:04.035Z,72.97
2022-12-24T06:35:20.277Z,72.23
2022-12-24T06:39:36.456Z,71.38
2022-12-24T06:43:54.024Z,71.55
2022-12-24T06:48:10.434Z,70.40
2022-12-24T06:52:26.641Z,70.27
2022-12-24T06:56:42.776Z,71.22
2022-12-24T07:01:00.895Z,72.86
2022-12-24T07:05:17.157Z,75.01
2022-12-24T07:09:33.308Z,72.81
2022-12-24T07:13:49.603Z,73.35
2022-12-24T07:18:05.813Z,72.87
2022-12-24T07:22:22.092Z,74.57
2022-12-24T07:26:38.340Z,71.71
2022-12-24T07:30:54.724Z,72.99
2022-12-24T07:35:11.190Z,73.05
2022-12-24T07:39:27.518Z,72.84
2022-12-24T07:43:43.918Z,72.62
2022-12-24T07:47:59.978Z,72.02
2022-12-24T07:52:16.227Z,72.86
2022-12-24T07:56:32.983Z,71.75
2022-12-24T08:00:49.282Z,72.19
2022-12-24T08:05:06.104Z,70.72
2022-12-24T08:09:22.666Z,70.63
2022-12-24T08:13:39.029Z,68.57
2022-12-24T08:17:55.188Z,68.11
2022-12-24T08:22:11.400Z,69.14
2022-12-24T08:26:27.633Z,70.80
2022-12-24T08:30:44.075Z,70.54
2022-12-24T08:35:00.257Z,69.52
2022-12-24T08:39:16.434Z,69.08
2022-12-24T08:43:32.629Z,69.59
2022-12-24T08:47:48.839Z,68.31
2022-12-24T08:52:05.072Z,67.50
2022-12-24T08:56:21.217Z,67.60
2022-12-24T09:00:38.344Z,68.24
2022-12-24T09:04:54.714Z,67.00
2022-12-24T09:09:10.823Z,69.19
2022-12-24T09:13:26.978Z,69.07
2022-12-24T09:17:43.168Z,68.55
2022-12-24T09:21:59.267Z,68.30
2022-12-24T09:26:17.991Z,67.57
2022-12-24T09:30:34.358Z,67.16
2022-12-24T09:34:50.545Z,65.91
2022-12-24T09:39:06.727Z,65.45
2022-12-24T09:43:25.869Z,64.84
2022-12-24T09:47:52.235Z,65.28
2022-12-24T09:52:12.827Z,64.48
2022-12-24T09:56:40.742Z,66.93
2022-12-24T10:00:57.830Z,65.25
2022-12-24T10:05:18.646Z,65.16
2022-12-24T10:09:59.441Z,65.26
2022-12-24T10:19:58.760Z,66.87
2022-12-24T10:24:34.912Z,65.47
2022-12-24T10:29:32.394Z,63.76
2022-12-24T10:33:54.684Z,64.77
2022-12-24T10:38:11.173Z,63.22
2022-12-24T10:42:50.558Z,62.71
2022-12-24T10:47:09.754Z,62.50
2022-12-24T10:51:42.164Z,62.69
2022-12-24T10:56:07.328Z,62.67
2022-12-24T11:00:31.797Z,61.27
2022-12-24T11:04:51.954Z,61.31
2022-12-24T11:09:43.583Z,61.18
2022-12-24T11:14:01.962Z,60.60
2022-12-24T11:18:18.276Z,59.73
2022-12-24T11:22:35.360Z,58.52
2022-12-24T11:26:51.528Z,57.51
2022-12-24T11:31:20.541Z,54.28
2022-12-24T11:35:48.058Z,51.62
2022-12-24T11:40:04.679Z,51.41
2022-12-24T11:44:28.775Z,50.28
2022-12-24T11:48:47.475Z,51.00
2022-12-24T11:53:03.888Z,51.22
2022-12-24T11:57:21.036Z,50.39
2022-12-24T12:01:40.752Z,50.11
2022-12-24T12:05:59.250Z,51.55
2022-12-24T12:10:25.314Z,49.93
2022-12-24T12:14:51.177Z,50.39
2022-12-24T12:19:14.924Z,50.19
2022-12-24T12:23:43.251Z,51.53
2022-12-24T12:28:01.211Z,52.16
2022-12-24T12:32:49.364Z,51.78
2022-12-24T12:37:38.565Z,50.74
2022-12-24T12:42:34.143Z,49.79
2022-12-24T12:47:27.626Z,49.32
2022-12-24T12:52:08.485Z,48.85
2022-12-24T12:56:37.828Z,47.06
2022-12-24T13:01:03.267Z,48.62
2022-12-24T13:05:34.936Z,49.75
2022-12-24T13:10:03.026Z,49.72
2022-12-24T13:14:28.717Z,49.36
2022-12-24T13:18:53.788Z,49.70
2022-12-24T13:23:15.161Z,51.17
2022-12-24T13:27:33.159Z,50.67
2022-12-24T13:31:49.549Z,48.71
2022-12-24T13:36:10.813Z,42.81
2022-12-24T13:40:28.464Z,36.92
2022-12-24T13:44:44.690Z,34.65
2022-12-24T13:49:12.980Z,35.98
2022-12-24T13:53:46.412Z,37.39
2022-12-24T13:58:04.488Z,35.00
2022-12-24T14:02:22.082Z,32.03
2022-12-24T14:06:41.453Z,30.62
2022-12-24T14:11:10.729Z,29.98
2022-12-24T14:16:08.061Z,28.67
2022-12-24T14:20:25.547Z,33.54
2022-12-24T14:24:50.348Z,38.87
2022-12-24T14:29:25.006Z,40.00
2022-12-24T14:33:41.441Z,42.57
2022-12-24T14:38:06.320Z,44.32
2022-12-24T14:42:45.059Z,46.66
2022-12-24T14:47:23.192Z,48.80
2022-12-24T14:51:57.145Z,49.24
2022-12-24T14:56:18.871Z,49.72
2022-12-24T15:00:39.458Z,50.44
2022-12-24T15:05:29.916Z,51.05
2022-12-24T15:09:46.183Z,50.98
2022-12-24T15:14:04.641Z,52.17
2022-12-24T15:18:24.401Z,51.46
2022-12-24T15:22:41.198Z,51.09
2022-12-24T15:26:57.471Z,50.93
2022-12-24T15:31:18.044Z,52.03
2022-12-24T15:35:55.608Z,52.18
2022-12-24T15:40:22.760Z,52.43
2022-12-24T15:44:40.658Z,52.36
2022-12-24T15:48:59.128Z,51.78
2022-12-24T15:53:28.466Z,51.34
2022-12-24T15:57:44.723Z,51.05
2022-12-24T16:02:42.793Z,50.74
2022-12-24T16:07:06.969Z,49.89
2022-12-24T16:11:34.011Z,50.12
2022-12-24T16:15:54.501Z,49.25
2022-12-24T16:20:20.356Z,49.03
2022-12-24T16:24:36.750Z,49.75
2022-12-24T16:28:52.939Z,48.79
2022-12-24T16:33:18.983Z,49.34
2022-12-24T16:37:35.275Z,48.51
2022-12-24T16:42:18.053Z,49.86
2022-12-24T16:46:35.156Z,50.37
2022-12-24T16:50:52.725Z,50.41
2022-12-24T16:55:09.833Z,50.41
2022-12-24T16:59:26.208Z,50.54
2022-12-24T17:03:42.632Z,50.16
2022-12-24T17:08:02.035Z,50.87
2022-12-24T17:12:18.251Z,51.39
2022-12-24T17:16:34.629Z,51.62
2022-12-24T17:21:01.674Z,51.25
2022-12-24T17:25:17.955Z,50.76
2022-12-24T17:29:34.285Z,51.01
2022-12-24T17:33:51.973Z,51.30
2022-12-24T17:38:08.322Z,51.07
2022-12-24T17:42:24.698Z,51.19
2022-12-24T17:46:41.277Z,50.84
2022-12-24T17:50:57.811Z,52.37
2022-12-24T17:55:14.011Z,51.38
2022-12-24T17:59:30.251Z,50.97
2022-12-24T18:03:50.767Z,53.33
2022-12-24T18:08:07.509Z,52.33
2022-12-24T18:12:23.722Z,53.92
2022-12-24T18:16:41.064Z,53.20
2022-12-24T18:20:57.344Z,54.45
2022-12-24T18:25:13.703Z,54.85
2022-12-24T18:29:30.201Z,54.36
2022-12-24T18:33:47.876Z,54.26
2022-12-24T18:38:04.172Z,54.52
2022-12-24T18:42:20.449Z,54.49
2022-12-24T18:46:36.714Z,55.07
2022-12-24T18:50:59.433Z,55.81
2022-12-24T18:55:15.657Z,57.37
2022-12-24T18:59:31.975Z,57.35
2022-12-24T19:03:49.441Z,58.82
2022-12-24T19:08:22.144Z,57.88
2022-12-24T19:12:42.194Z,57.44
2022-12-24T19:17:11.937Z,59.27
2022-12-24T19:21:39.596Z,59.24
2022-12-24T19:25:56.025Z,59.67
2022-12-24T19:30:13.647Z,60.36
2022-12-24T19:34:29.943Z,60.47
2022-12-24T19:38:46.864Z,59.75
2022-12-24T19:43:03.277Z,59.40
2022-12-24T19:47:19.488Z,59.70
2022-12-24T19:51:36.140Z,58.92
2022-12-24T19:55:52.525Z,59.36
2022-12-24T20:00:10.558Z,58.77
2022-12-24T20:04:26.934Z,58.34
2022-12-24T20:08:43.825Z,58.06
2022-12-24T20:13:05.722Z,58.36
2022-12-24T20:17:22.405Z,57.80
2022-12-24T20:21:38.703Z,58.09
2022-12-24T20:25:59.929Z,57.60
2022-12-24T20:30:16.477Z,57.83
2022-12-24T20:34:32.716Z,57.17
2022-12-24T20:38:49.689Z,59.74
2022-12-24T20:43:05.986Z,58.16
2022-12-24T20:47:22.371Z,57.47
2022-12-24T20:51:38.611Z,56.98
2022-12-24T20:55:55.161Z,57.65
2022-12-24T21:00:12.297Z,57.99
2022-12-24T21:04:28.645Z,57.65
2022-12-24T21:08:46.617Z,57.81
2022-12-24T21:13:03.065Z,58.71
2022-12-24T21:17:19.359Z,57.49
2022-12-24T21:21:36.488Z,58.60
2022-12-24T21:26:04.129Z,57.97
2022-12-24T21:30:20.790Z,58.93
2022-12-24T21:34:37.011Z,59.65
2022-12-24T21:38:54.376Z,58.76
2022-12-24T21:43:10.592Z,60.07
2022-12-24T21:47:27.209Z,60.17
2022-12-24T21:51:45.080Z,61.08
2022-12-24T21:56:08.536Z,61.43
2022-12-24T22:00:27.130Z,62.62
2022-12-24T22:04:43.850Z,62.57
2022-12-24T22:09:18.454Z,62.06
2022-12-24T22:13:34.663Z,61.22
2022-12-24T22:17:51.045Z,61.78
2022-12-24T22:22:07.448Z,60.84
2022-12-24T22:26:23.731Z,61.21
2022-12-24T22:30:41.669Z,61.60
2022-12-24T22:34:58.006Z,61.32
2022-12-24T22:39:14.442Z,61.53
2022-12-24T22:43:30.697Z,61.15
2022-12-24T22:47:46.954Z,60.83
2022-12-24T22:52:03.622Z,61.16
2022-12-24T22:56:22.162Z,61.66
2022-12-24T23:00:46.271Z,60.94
2022-12-24T23:05:02.667Z,60.74
2022-12-24T23:09:19.100Z,60.26
2022-12-24T23:13:56.414Z,60.68
2022-12-24T23:18:12.924Z,60.61
2022-12-24T23:22:29.053Z,60.40
2022-12-24T23:26:45.311Z,59.44
2022-12-24T23:31:01.611Z,60.04
2022-12-24T23:35:18.203Z,60.69
2022-12-24T23:39:37.587Z,61.34
2022-12-24T23:43:54.050Z,60.43
2022-12-24T23:48:10.277Z,60.12
2022-12-24T23:52:26.520Z,60.77
2022-12-24T23:56:42.746Z,62.51
